FMCH

Prince Said Ibrahim International Airport

Moroni, Comoros
METAR FMCH 180000Z 07003KT 9999 VCTS FEW018CB BKN030 26/23 Q1011 NOSIG
Observed Flight Rules
Dec-18 @ 00:00 UTC (3 hours ago) Marginal Visual Flight Rules
Wind Visibility Clouds Conditions
70° at 3 knots 10,000+ meters
  • Few at 1,800' AGL
  • Broken at 3,000' AGL
  • Area Thunderstorm
Temperatures Readings
Current 26°C / 79°F
Dewpoint 23°C / 73°F
Humidity 84%
Altimeter 29.85" Hg
Pressure 1011 hPa
Elevation 29
METAR FMCH 180000Z 07003KT 9999 VCTS FEW018CB BKN030 26/23 Q1011 NOSIG
Observed Flight Rules
Dec-18 @ 00:00 UTC
(3 hours ago)
MVFR
Wind Visibility
70° at 3 knots 10,000+ meters
Clouds
  • Few at 1,800' AGL
  • Broken at 3,000' AGL
Conditions
  • Area Thunderstorm
Temperature Dewpoint
26°C / 79°F 23°C / 73°F
Humidity Altimeter Pressure
84% 29.85" Hg 1011 hPa